Time;durP1;ratioP1;P1;durP2;ratioP2;P2;SDS_P1;SDS_P2;PMS_P1;PMS_P2;Temp;Humidity;BMP_temperature;BMP_pressure;BME280_temperature;BME280_humidity;BME280_pressure;Samples;Min_cycle;Max_cycle;Signal;HPM_P1;HPM_P2
2021/06/28 00:01:47;;;;;;;;;10.00;10.00;;;;;20.26;76.51;101229.31;4978784;28;46986;-73
2021/06/28 00:04:13;;;;;;;;;11.50;10.00;;;;;20.28;76.03;101232.75;4980633;28;45345;-74
2021/06/28 00:06:38;;;;;;;;;10.00;10.00;;;;;20.28;76.42;101225.59;4979928;28;45579;-73
2021/06/28 00:09:04;;;;;;;;;7.50;6.75;;;;;20.30;76.46;101214.81;4978568;28;45432;-73
2021/06/28 00:11:29;;;;;;;;;8.00;7.25;;;;;20.27;76.63;101217.69;4978912;28;45285;-73
2021/06/28 00:13:55;;;;;;;;;8.25;8.25;;;;;20.26;76.93;101226.66;4978932;28;45265;-73
2021/06/28 00:16:24;;;;;;;;;8.50;8.50;;;;;20.23;76.70;101217.91;4979383;28;45369;-74
2021/06/28 00:18:51;;;;;;;;;8.00;8.00;;;;;20.24;76.63;101222.28;4978701;28;45273;-74
2021/06/28 00:21:17;;;;;;;;;6.75;6.75;;;;;20.24;76.66;101218.75;4979361;28;45366;-73
2021/06/28 00:23:43;;;;;;;;;8.00;7.50;;;;;20.23;76.74;101220.56;4980125;28;45317;-74
2021/06/28 00:26:08;;;;;;;;;7.25;7.25;;;;;20.22;76.66;101213.50;4980467;28;45448;-74
2021/06/28 00:28:34;;;;;;;;;7.75;7.00;;;;;20.24;76.56;101216.09;4977780;28;45279;-73
2021/06/28 00:30:59;;;;;;;;;6.75;6.75;;;;;20.22;76.60;101202.84;4977970;28;47106;-73
2021/06/28 00:33:25;;;;;;;;;6.75;5.50;;;;;20.17;76.34;101198.78;4978851;28;46848;-73
2021/06/28 00:35:51;;;;;;;;;3.00;3.00;;;;;20.13;75.99;101204.31;4980308;28;46435;-72
2021/06/28 00:38:16;;;;;;;;;3.00;3.00;;;;;20.06;76.21;101188.78;4979596;28;45462;-72
2021/06/28 00:40:44;;;;;;;;;2.50;2.50;;;;;19.99;76.56;101183.88;4980301;28;45370;-72
2021/06/28 00:43:10;;;;;;;;;4.00;2.50;;;;;19.99;75.91;101178.53;4978638;28;46043;-72
2021/06/28 00:45:38;;;;;;;;;3.00;3.00;;;;;19.93;76.14;101173.59;4978622;28;45506;-72
2021/06/28 00:48:10;;;;;;;;;3.00;2.75;;;;;19.87;76.05;101168.66;4978096;28;46466;-73
2021/06/28 00:50:40;;;;;;;;;3.25;3.25;;;;;19.81;76.12;101159.25;4980462;28;45356;-73
2021/06/28 00:53:09;;;;;;;;;2.00;2.00;;;;;19.82;76.14;101154.78;4979987;28;45408;-73
2021/06/28 00:55:35;;;;;;;;;6.00;4.75;;;;;19.82;76.23;101166.31;4979621;28;46106;-73
2021/06/28 00:58:01;;;;;;;;;4.00;3.50;;;;;19.83;75.98;101167.16;4978116;28;45603;-74
2021/06/28 01:00:27;;;;;;;;;5.75;4.75;;;;;19.77;76.08;101153.28;4977534;28;45339;-74
2021/06/28 01:02:53;;;;;;;;;2.75;2.75;;;;;19.77;75.96;101150.63;4978720;28;45592;-74
2021/06/28 01:05:24;;;;;;;;;2.00;2.00;;;;;19.78;76.40;101144.31;4979935;28;45267;-74
2021/06/28 01:07:50;;;;;;;;;3.75;2.25;;;;;19.75;75.84;101135.66;4979170;28;45261;-73
2021/06/28 01:10:18;;;;;;;;;2.00;2.00;;;;;19.73;75.73;101127.75;4979279;28;45407;-74
2021/06/28 01:12:45;;;;;;;;;2.25;2.25;;;;;19.66;76.00;101116.66;4978265;28;47425;-74
2021/06/28 01:15:11;;;;;;;;;6.75;2.00;;;;;19.65;75.74;101116.75;4978622;28;46549;-72
2021/06/28 01:17:38;;;;;;;;;2.00;2.00;;;;;19.60;76.18;101102.88;4978396;28;45370;-72
2021/06/28 01:20:10;;;;;;;;;3.75;2.00;;;;;19.60;76.36;101097.53;4970384;28;45183;-72
2021/06/28 01:22:37;;;;;;;;;2.00;2.00;;;;;19.60;76.62;101094.88;4979548;28;45479;-72
2021/06/28 01:25:05;;;;;;;;;4.25;4.25;;;;;19.60;76.32;101097.53;4978408;28;48339;-72
2021/06/28 01:27:31;;;;;;;;;4.00;4.00;;;;;19.58;76.44;101116.31;4992243;28;47014;-72
2021/06/28 01:29:58;;;;;;;;;2.50;2.50;;;;;19.58;76.56;101126.13;4970309;28;45703;-72
2021/06/28 01:32:24;;;;;;;;;7.00;4.75;;;;;19.59;76.57;101118.00;4977599;28;47469;-72
2021/06/28 01:34:50;;;;;;;;;5.00;4.25;;;;;19.58;76.77;101132.31;4979707;28;45186;-72
2021/06/28 01:37:20;;;;;;;;;4.25;4.25;;;;;19.63;76.41;101172.81;4978263;28;45676;-72
2021/06/28 01:39:48;;;;;;;;;3.50;3.50;;;;;19.67;76.51;101187.69;4979772;28;45288;-73
2021/06/28 01:42:13;;;;;;;;;5.00;4.00;;;;;19.70;75.98;101199.97;4977518;28;45973;-73
2021/06/28 01:44:38;;;;;;;;;8.75;8.75;;;;;19.73;75.98;101178.41;4976290;28;48122;-72
2021/06/28 01:47:04;;;;;;;;;4.25;4.25;;;;;19.71;75.80;101158.13;4976912;28;45447;-72
2021/06/28 01:49:29;;;;;;;;;2.50;2.50;;;;;19.70;75.66;101178.63;4977876;28;45321;-74
2021/06/28 01:51:55;;;;;;;;;4.75;4.00;;;;;19.72;75.68;101174.06;4978701;28;45550;-73
2021/06/28 01:54:20;;;;;;;;;4.75;4.75;;;;;19.78;75.64;101173.66;4979981;28;47022;-74
2021/06/28 01:56:45;;;;;;;;;1.50;1.50;;;;;19.78;75.33;101148.78;4979464;28;45545;-73
2021/06/28 01:59:11;;;;;;;;;3.00;3.00;;;;;19.75;75.54;101144.53;4981067;28;47051;-72
2021/06/28 02:01:38;;;;;;;;;6.00;4.75;;;;;19.77;75.79;101161.28;4980702;28;45335;-72
2021/06/28 02:04:04;;;;;;;;;3.00;3.00;;;;;19.79;75.41;101172.69;4982488;28;45202;-73
2021/06/28 02:06:29;;;;;;;;;4.50;3.25;;;;;19.85;75.31;101173.25;4981882;28;45269;-73
2021/06/28 02:08:55;;;;;;;;;3.00;3.00;;;;;19.89;75.28;101180.94;4982588;28;45352;-73
2021/06/28 02:11:20;;;;;;;;;4.00;3.50;;;;;19.90;75.27;101168.47;4980428;28;45324;-73
2021/06/28 02:13:45;;;;;;;;;4.75;3.00;;;;;19.97;75.11;101184.91;4981038;28;45324;-73
2021/06/28 02:16:11;;;;;;;;;2.00;1.00;;;;;19.95;74.99;101181.50;4979982;28;45315;-72
2021/06/28 02:18:37;;;;;;;;;2.00;1.00;;;;;19.94;74.59;101177.97;4982701;28;45337;-73
2021/06/28 02:21:03;;;;;;;;;1.00;1.00;;;;;19.87;74.51;101166.88;4981952;28;45297;-72
2021/06/28 02:23:33;;;;;;;;;2.00;2.00;;;;;19.79;75.31;101161.16;4980474;28;45713;-73
2021/06/28 02:26:11;;;;;;;;;3.00;2.00;;;;;19.78;75.00;101165.63;4980757;28;45448;-73
2021/06/28 02:28:38;;;;;;;;;2.75;2.00;;;;;19.78;75.10;101160.31;4981329;28;45481;-73
2021/06/28 02:31:06;;;;;;;;;2.50;2.50;;;;;19.79;74.92;101138.03;4979564;28;45549;-73
2021/06/28 02:33:33;;;;;;;;;1.00;1.00;;;;;19.77;74.42;101139.94;4981972;28;45479;-73
2021/06/28 02:36:00;;;;;;;;;4.00;2.50;;;;;19.75;74.48;101117.88;4982014;28;45532;-73
2021/06/28 02:38:25;;;;;;;;;1.00;1.00;;;;;19.75;74.95;101128.53;4981962;28;45297;-72
2021/06/28 02:40:52;;;;;;;;;4.00;2.00;;;;;19.79;74.96;101148.69;4981094;28;45288;-72
2021/06/28 02:43:18;;;;;;;;;2.25;2.25;;;;;19.83;74.66;101169.84;4979935;28;46376;-72
2021/06/28 02:45:44;;;;;;;;;2.25;2.25;;;;;19.86;74.68;101186.47;4980566;28;45233;-72
2021/06/28 02:48:09;;;;;;;;;2.00;2.00;;;;;19.91;74.39;101186.16;4981819;28;45555;-72
2021/06/28 02:50:36;;;;;;;;;1.00;1.00;;;;;19.94;74.18;101185.97;4982109;28;45487;-73
2021/06/28 02:53:03;;;;;;;;;1.00;1.00;;;;;19.96;73.65;101205.41;4981180;28;45536;-73
2021/06/28 02:55:28;;;;;;;;;3.00;3.00;;;;;19.96;73.88;101210.75;4980373;28;45383;-73
2021/06/28 02:57:54;;;;;;;;;1.00;1.00;;;;;19.99;73.81;101221.22;4981538;28;45361;-73
2021/06/28 03:00:19;;;;;;;;;3.00;2.00;;;;;19.99;73.58;101213.22;4979568;28;46051;-73
2021/06/28 03:02:45;;;;;;;;;1.00;1.00;;;;;20.00;73.50;101204.22;4980211;28;45663;-73
2021/06/28 03:05:11;;;;;;;;;3.00;3.00;;;;;20.02;73.90;101182.81;4980788;28;45320;-73
2021/06/28 03:07:38;;;;;;;;;2.00;2.00;;;;;20.03;73.48;101181.84;4980318;28;45516;-73
2021/06/28 03:10:07;;;;;;;;;1.00;1.00;;;;;19.98;73.68;101187.47;4979884;28;45222;-73
2021/06/28 03:12:32;;;;;;;;;2.00;2.00;;;;;19.97;73.40;101183.13;4981255;28;45438;-73
2021/06/28 03:14:58;;;;;;;;;2.00;2.00;;;;;19.99;73.48;101181.19;4979540;28;45640;-74
2021/06/28 03:17:24;;;;;;;;;3.00;2.25;;;;;20.01;73.48;101170.41;4980591;28;45291;-74
2021/06/28 03:19:49;;;;;;;;;2.00;2.00;;;;;20.01;72.76;101152.59;4980981;28;46337;-73
2021/06/28 03:22:16;;;;;;;;;1.25;1.25;;;;;19.99;73.68;101145.66;4979812;28;45518;-73
2021/06/28 03:24:42;;;;;;;;;2.25;1.00;;;;;20.00;73.57;101148.22;4980025;28;45685;-73
2021/06/28 03:27:07;;;;;;;;;1.75;1.00;;;;;20.00;73.35;101132.19;4981278;28;45424;-72
2021/06/28 03:29:33;;;;;;;;;2.00;2.00;;;;;19.95;73.40;101112.97;4977016;28;45415;-74
2021/06/28 03:31:58;;;;;;;;;2.50;1.00;;;;;19.95;73.76;101118.31;4979488;28;45499;-74
2021/06/28 03:34:23;;;;;;;;;2.50;2.00;;;;;19.96;73.73;101140.50;4981131;28;45281;-74
2021/06/28 03:36:49;;;;;;;;;3.25;2.50;;;;;19.97;73.59;101139.56;4981082;28;45293;-74
2021/06/28 03:39:14;;;;;;;;;1.00;1.00;;;;;19.93;73.41;101128.25;4980036;28;45478;-74
2021/06/28 03:41:39;;;;;;;;;4.00;3.00;;;;;19.92;73.66;101133.69;4977970;28;47885;-74
2021/06/28 03:44:05;;;;;;;;;1.75;1.75;;;;;19.92;73.62;101133.69;4980729;28;45464;-72
2021/06/28 03:46:31;;;;;;;;;32.25;31.50;;;;;19.86;73.70;101145.59;4980152;28;45540;-72
2021/06/28 03:48:57;;;;;;;;;16.00;15.00;;;;;19.85;73.96;101152.75;4980731;28;45323;-72
2021/06/28 03:51:22;;;;;;;;;2.25;2.25;;;;;19.84;73.67;101147.53;4980348;28;45376;-72
2021/06/28 03:53:48;;;;;;;;;3.25;3.25;;;;;19.87;73.41;101158.88;4979218;28;45772;-73
2021/06/28 03:56:14;;;;;;;;;3.00;3.00;;;;;19.89;73.24;101172.09;4980086;28;45385;-73
2021/06/28 03:58:43;;;;;;;;;2.00;2.00;;;;;19.91;73.54;101159.50;4978587;28;47690;-74
2021/06/28 04:01:08;;;;;;;;;0.25;0.00;;;;;19.91;73.69;101135.50;4977869;28;46386;-73
2021/06/28 04:03:36;;;;;;;;;2.00;1.75;;;;;19.91;73.48;101154.16;4979317;28;45771;-73
2021/06/28 04:06:06;;;;;;;;;3.00;3.00;;;;;19.90;73.15;101168.47;4980617;28;45230;-72
2021/06/28 04:08:35;;;;;;;;;2.25;2.25;;;;;19.92;73.05;101166.56;4980578;28;45621;-71
2021/06/28 04:11:02;;;;;;;;;2.00;2.00;;;;;19.96;73.30;101167.19;4978344;28;45474;-72
2021/06/28 04:13:28;;;;;;;;;3.00;3.00;;;;;19.95;73.29;101171.66;4980483;28;45251;-72
2021/06/28 04:15:53;;;;;;;;;2.25;2.25;;;;;19.96;72.89;101172.53;4978148;28;45273;-72
2021/06/28 04:18:20;;;;;;;;;2.00;2.00;;;;;19.97;73.15;101164.44;4979232;28;45839;-72
2021/06/28 04:20:45;;;;;;;;;2.00;2.00;;;;;19.98;72.97;101166.13;4978455;28;47554;-72
2021/06/28 04:23:11;;;;;;;;;2.75;2.00;;;;;19.98;72.96;101171.47;4980453;28;45350;-72
2021/06/28 04:25:36;;;;;;;;;2.00;2.00;;;;;20.00;73.00;101169.56;4976846;28;45308;-72
2021/06/28 04:28:02;;;;;;;;;2.00;2.00;;;;;20.00;72.47;101161.56;4979371;28;45333;-72
2021/06/28 04:30:27;;;;;;;;;1.25;1.25;;;;;20.04;73.09;101161.34;4977458;28;46445;-72
2021/06/28 04:32:53;;;;;;;;;2.00;2.00;;;;;20.04;72.99;101170.22;4979358;28;45446;-72
2021/06/28 04:35:25;;;;;;;;;2.00;2.00;;;;;20.02;73.08;101162.31;4982495;28;45450;-72
2021/06/28 04:37:53;;;;;;;;;2.50;2.50;;;;;20.02;72.92;101173.00;4980020;28;45431;-72
2021/06/28 04:40:21;;;;;;;;;2.00;2.00;;;;;19.99;72.68;101178.53;4978782;28;45707;-72
2021/06/28 04:42:48;;;;;;;;;2.00;2.00;;;;;19.97;73.03;101168.91;4978821;28;45259;-72
2021/06/28 04:45:15;;;;;;;;;2.00;2.00;;;;;20.00;72.86;101182.06;4979631;28;45281;-72
2021/06/28 04:47:41;;;;;;;;;2.00;2.00;;;;;19.99;72.58;101181.19;4978887;28;45458;-72
2021/06/28 04:50:08;;;;;;;;;1.00;1.00;;;;;20.01;72.64;101195.28;4978128;28;47172;-72
2021/06/28 04:52:35;;;;;;;;;3.50;2.25;;;;;20.01;72.35;101189.09;4978533;28;45316;-72
2021/06/28 04:55:02;;;;;;;;;2.00;2.00;;;;;20.03;72.39;101187.16;4978896;28;45276;-72
2021/06/28 04:57:28;;;;;;;;;1.75;1.75;;;;;20.02;72.32;101199.69;4980125;28;45348;-71
2021/06/28 04:59:54;;;;;;;;;2.00;2.00;;;;;20.01;72.27;101197.94;4976389;28;45250;-73
2021/06/28 05:02:19;;;;;;;;;2.00;2.00;;;;;20.01;72.57;101197.09;4976590;28;45424;-72
2021/06/28 05:04:47;;;;;;;;;1.00;1.00;;;;;20.01;72.54;101192.63;4979903;28;45248;-73
2021/06/28 05:07:12;;;;;;;;;1.25;1.25;;;;;19.96;72.38;101205.41;4976751;28;45335;-72
2021/06/28 05:09:37;;;;;;;;;2.25;1.00;;;;;19.89;72.04;101199.63;4976001;28;45436;-73
2021/06/28 05:12:03;;;;;;;;;2.00;2.00;;;;;19.89;72.33;101209.44;4972459;28;46107;-72
2021/06/28 05:14:29;;;;;;;;;3.00;1.00;;;;;19.89;72.49;101206.75;4972820;28;45436;-72
2021/06/28 05:16:54;;;;;;;;;2.50;2.50;;;;;19.82;72.13;101203.66;4969902;28;45997;-72
2021/06/28 05:19:19;;;;;;;;;2.00;2.00;;;;;19.85;72.38;101221.25;4969733;28;45439;-72
2021/06/28 05:21:45;;;;;;;;;4.00;4.00;;;;;19.85;72.21;101203.44;4972177;28;45364;-72
2021/06/28 05:24:10;;;;;;;;;2.00;2.00;;;;;19.83;72.61;101213.34;4975077;28;45329;-72
2021/06/28 05:26:36;;;;;;;;;3.00;2.00;;;;;19.81;73.22;101222.41;4970215;28;45793;-72
2021/06/28 05:29:02;;;;;;;;;4.50;3.00;;;;;19.78;72.94;101210.13;4974311;28;45840;-73
2021/06/28 05:31:28;;;;;;;;;3.00;3.00;;;;;19.76;72.75;101225.38;4975594;28;45762;-74
2021/06/28 05:33:53;;;;;;;;;2.25;2.00;;;;;19.78;72.96;101226.97;4970051;28;45512;-74
2021/06/28 05:36:20;;;;;;;;;4.00;3.00;;;;;19.78;72.74;101218.13;4974295;28;45501;-74
2021/06/28 05:38:46;;;;;;;;;2.00;2.00;;;;;19.77;73.11;101211.94;4977512;28;46220;-74
2021/06/28 05:41:11;;;;;;;;;1.75;1.75;;;;;19.75;73.13;101205.00;4968749;28;46101;-74
2021/06/28 05:43:37;;;;;;;;;4.75;2.75;;;;;19.77;73.11;101190.63;4975308;28;45475;-73
2021/06/28 05:46:02;;;;;;;;;3.00;2.00;;;;;19.73;72.65;101167.75;4978106;28;46374;-73
2021/06/28 05:48:27;;;;;;;;;3.75;3.25;;;;;19.68;73.15;101184.06;4973173;28;46355;-73
2021/06/28 05:50:53;;;;;;;;;2.00;2.00;;;;;19.67;73.28;101192.16;4982181;28;45443;-73
2021/06/28 05:53:18;;;;;;;;;2.00;2.00;;;;;19.70;72.82;101175.09;4980611;28;45750;-74
2021/06/28 05:55:44;;;;;;;;;4.00;3.00;;;;;19.63;73.01;101172.81;4980373;28;45539;-77
2021/06/28 05:58:09;;;;;;;;;2.00;2.00;;;;;19.64;73.70;101174.56;4981191;28;46425;-77
2021/06/28 06:00:34;;;;;;;;;3.25;3.25;;;;;19.62;73.20;101168.47;4979416;28;46048;-76
2021/06/28 06:03:00;;;;;;;;;3.00;2.00;;;;;19.60;73.47;101167.72;4980180;28;45412;-76
2021/06/28 06:05:27;;;;;;;;;3.50;3.00;;;;;19.59;73.74;101168.66;4981792;28;45888;-76
2021/06/28 06:07:53;;;;;;;;;2.00;2.00;;;;;19.54;73.92;101184.97;4980127;28;45540;-75
2021/06/28 06:10:19;;;;;;;;;4.00;3.00;;;;;19.56;73.76;101204.38;4978993;28;45424;-74
2021/06/28 06:12:44;;;;;;;;;1.00;1.00;;;;;19.58;73.86;101212.28;4981268;28;45335;-74
2021/06/28 06:15:11;;;;;;;;;2.00;2.00;;;;;19.61;73.57;101211.22;4981745;28;45554;-74
2021/06/28 06:17:37;;;;;;;;;4.00;3.50;;;;;19.64;73.50;101205.69;4980869;28;46723;-75
2021/06/28 06:20:05;;;;;;;;;3.00;2.50;;;;;19.66;73.29;101214.44;4982319;28;45253;-74
2021/06/28 06:22:30;;;;;;;;;4.25;3.00;;;;;19.67;73.51;101218.81;4981580;28;45510;-74
2021/06/28 06:24:56;;;;;;;;;5.00;3.00;;;;;19.70;73.36;101236.44;4979751;28;46264;-74
2021/06/28 06:27:21;;;;;;;;;5.25;4.00;;;;;19.69;73.47;101243.56;4981804;28;46349;-74
2021/06/28 06:29:46;;;;;;;;;4.00;2.75;;;;;19.70;73.23;101244.44;4977061;28;45245;-74
2021/06/28 06:32:13;;;;;;;;;5.25;3.00;;;;;19.76;73.55;101242.22;4966711;28;45492;-74
2021/06/28 06:34:38;;;;;;;;;2.50;2.50;;;;;19.74;72.75;101243.28;4972009;28;45325;-74
2021/06/28 06:37:04;;;;;;;;;4.25;2.75;;;;;19.72;73.02;101251.38;4962510;28;46239;-75
2021/06/28 06:39:31;;;;;;;;;4.00;3.00;;;;;19.75;72.85;101250.34;4969067;28;45479;-75
2021/06/28 06:41:56;;;;;;;;;3.75;3.50;;;;;19.77;73.37;101251.97;4969279;28;45487;-75
2021/06/28 06:44:22;;;;;;;;;4.50;4.50;;;;;19.76;72.75;101246.69;4976013;28;46152;-75
2021/06/28 06:46:47;;;;;;;;;2.50;2.50;;;;;19.68;72.73;101241.84;4971412;28;45471;-75
2021/06/28 06:49:13;;;;;;;;;4.00;2.50;;;;;19.70;73.02;101247.97;4976996;28;45935;-75
2021/06/28 06:51:39;;;;;;;;;7.75;5.00;;;;;19.74;73.13;101244.16;4977691;28;45432;-75
2021/06/28 06:54:04;;;;;;;;;3.00;3.00;;;;;19.76;73.23;101236.91;4963309;28;45239;-75
2021/06/28 06:56:30;;;;;;;;;6.25;3.00;;;;;19.79;73.04;101244.72;4962327;28;46444;-74
2021/06/28 06:58:55;;;;;;;;;3.50;3.00;;;;;19.82;73.06;101253.47;4961860;28;45456;-75
2021/06/28 07:01:20;;;;;;;;;6.00;4.00;;;;;19.87;73.09;101256.69;4965065;28;45452;-75
2021/06/28 07:03:47;;;;;;;;;4.50;4.50;;;;;19.84;72.89;101236.41;4978190;28;45415;-75
2021/06/28 07:06:12;;;;;;;;;4.75;4.75;;;;;19.79;72.58;101236.69;4981249;28;45336;-75
2021/06/28 07:08:38;;;;;;;;;3.50;3.50;;;;;19.78;72.56;101239.44;4976027;28;46200;-75
2021/06/28 07:11:06;;;;;;;;;5.75;4.00;;;;;19.78;73.00;101256.31;4978485;28;45468;-75
2021/06/28 07:13:33;;;;;;;;;4.75;3.50;;;;;19.87;73.25;101262.03;4961943;28;45355;-75
2021/06/28 07:15:59;;;;;;;;;4.00;4.00;;;;;19.86;72.58;101250.50;4961707;28;46198;-75
2021/06/28 07:18:24;;;;;;;;;3.00;3.00;;;;;19.85;72.10;101254.09;4956367;28;45762;-75
2021/06/28 07:20:50;;;;;;;;;4.00;4.00;;;;;19.83;72.41;101256.00;4963017;28;45636;-76
2021/06/28 07:23:15;;;;;;;;;3.75;3.00;;;;;19.84;72.23;101252.41;4971315;28;45328;-75
2021/06/28 07:25:41;;;;;;;;;3.25;3.25;;;;;19.87;72.15;101256.69;4969760;28;46179;-75
2021/06/28 07:28:07;;;;;;;;;4.00;3.25;;;;;19.92;72.44;101256.38;4972463;28;45577;-75
2021/06/28 07:30:33;;;;;;;;;5.00;3.25;;;;;19.98;71.47;101261.31;4971407;28;45385;-75
2021/06/28 07:32:58;;;;;;;;;3.25;3.25;;;;;19.95;71.69;101265.03;4974988;28;45795;-76
2021/06/28 07:35:24;;;;;;;;;5.50;5.00;;;;;19.89;71.48;101265.44;4963030;28;45900;-75
2021/06/28 07:37:50;;;;;;;;;4.00;4.00;;;;;19.88;71.52;101261.06;4964619;28;45390;-75
2021/06/28 07:40:19;;;;;;;;;2.25;2.25;;;;;19.92;71.94;101264.38;4972284;28;45821;-76
2021/06/28 07:42:46;;;;;;;;;3.50;3.50;;;;;19.93;71.80;101263.44;4961184;28;45384;-76
2021/06/28 07:45:13;;;;;;;;;2.25;2.25;;;;;19.98;71.89;101263.97;4972811;28;46469;-75
2021/06/28 07:47:40;;;;;;;;;3.75;3.50;;;;;20.05;72.06;101275.13;4967546;28;45656;-76
2021/06/28 07:50:07;;;;;;;;;4.00;4.00;;;;;20.08;72.49;101272.25;4973121;28;45517;-76
2021/06/28 07:52:34;;;;;;;;;2.50;2.00;;;;;20.12;72.01;101276.47;4971859;28;45527;-76
2021/06/28 07:54:59;;;;;;;;;4.50;3.00;;;;;20.17;71.71;101266.34;4979330;28;45627;-76
2021/06/28 07:57:25;;;;;;;;;6.25;4.75;;;;;20.22;71.62;101261.53;4970807;28;45480;-76
2021/06/28 07:59:51;;;;;;;;;2.50;2.25;;;;;20.24;71.49;101265.00;4970412;28;45350;-76
2021/06/28 08:02:16;;;;;;;;;4.00;3.00;;;;;20.22;70.75;101260.72;4968400;28;45567;-77
2021/06/28 08:04:41;;;;;;;;;4.00;4.00;;;;;20.20;70.90;101254.63;4968110;28;46518;-76
2021/06/28 08:07:07;;;;;;;;;2.00;2.00;;;;;20.23;71.25;101255.25;4968082;28;45343;-76
2021/06/28 08:09:32;;;;;;;;;1.00;1.00;;;;;20.27;70.57;101266.59;4972948;28;45285;-76
2021/06/28 08:11:58;;;;;;;;;2.50;2.50;;;;;20.33;70.27;101273.31;4977610;28;45241;-76
2021/06/28 08:14:24;;;;;;;;;4.00;2.25;;;;;20.31;70.01;101268.09;4974362;28;45714;-76
2021/06/28 08:16:50;;;;;;;;;5.25;4.00;;;;;20.34;70.27;101267.03;4977532;28;45418;-76
2021/06/28 08:19:15;;;;;;;;;5.50;3.50;;;;;20.35;70.22;101258.94;4975298;28;45424;-76
2021/06/28 08:21:41;;;;;;;;;3.00;3.00;;;;;20.38;70.63;101257.88;4970762;28;45523;-76
2021/06/28 08:24:09;;;;;;;;;3.00;3.00;;;;;20.38;70.07;101254.34;4968135;28;45727;-76
2021/06/28 08:26:35;;;;;;;;;3.00;3.00;;;;;20.43;70.18;101265.56;4975808;28;45791;-76
2021/06/28 08:29:04;;;;;;;;;4.25;2.50;;;;;20.45;69.49;101252.97;4970434;28;45705;-75
2021/06/28 08:31:35;;;;;;;;;2.25;2.25;;;;;20.46;70.09;101254.69;4964453;28;45318;-75
2021/06/28 08:34:00;;;;;;;;;3.50;1.25;;;;;20.48;69.07;101257.25;4975046;28;46318;-75
2021/06/28 08:36:25;;;;;;;;;1.00;1.00;;;;;20.52;68.39;101258.78;4976635;28;45696;-75
2021/06/28 08:38:51;;;;;;;;;2.50;2.00;;;;;20.53;69.31;101250.66;4977694;28;45983;-76
2021/06/28 08:41:17;;;;;;;;;1.00;1.00;;;;;20.57;68.23;101254.81;4963120;28;45507;-76
2021/06/28 08:43:45;;;;;;;;;2.00;2.00;;;;;20.60;69.17;101245.72;4977644;28;45645;-76
2021/06/28 08:46:12;;;;;;;;;1.25;1.25;;;;;20.66;67.95;101240.00;4960983;28;45714;-76
2021/06/28 08:48:47;;;;;;;;;3.50;3.50;;;;;20.75;68.29;101246.50;4976596;28;45443;-76
2021/06/28 08:51:13;;;;;;;;;4.00;2.50;;;;;20.79;68.10;101249.84;4975404;28;45422;-76
2021/06/28 08:53:40;;;;;;;;;2.00;2.00;;;;;20.84;68.49;101249.50;4978954;28;45484;-76
2021/06/28 08:56:09;;;;;;;;;1.00;1.00;;;;;20.89;68.64;101256.22;4976121;28;45426;-76
2021/06/28 08:58:37;;;;;;;;;2.50;2.50;;;;;20.85;68.08;101249.41;4977652;28;45891;-76
2021/06/28 09:01:04;;;;;;;;;3.00;2.00;;;;;20.87;67.70;101247.47;4977591;28;45432;-76
2021/06/28 09:03:30;;;;;;;;;2.00;2.00;;;;;20.87;66.53;101246.59;4970904;28;45441;-76
2021/06/28 09:06:04;;;;;;;;;1.75;1.75;;;;;20.90;67.08;101251.75;4979039;28;45431;-76
2021/06/28 09:08:32;;;;;;;;;1.25;1.25;;;;;20.89;67.32;101255.41;4977218;28;45308;-76
2021/06/28 09:10:57;;;;;;;;;4.00;2.00;;;;;20.91;65.82;101258.81;4963356;28;45338;-76
2021/06/28 09:13:37;;;;;;;;;0.75;0.75;;;;;20.91;66.46;101253.47;4982217;28;45564;-77
2021/06/28 09:16:13;;;;;;;;;2.00;1.00;;;;;20.97;66.78;101269.06;4964744;28;45352;-75
2021/06/28 09:18:49;;;;;;;;;1.00;1.00;;;;;20.96;66.31;101262.03;4974257;28;46336;-75
2021/06/28 09:21:15;;;;;;;;;1.00;1.00;;;;;21.00;66.69;101265.31;4965726;28;47092;-75
2021/06/28 09:23:41;;;;;;;;;2.00;2.00;;;;;20.99;66.41;101267.13;4973840;28;45501;-75
2021/06/28 09:26:14;;;;;;;;;3.00;1.75;;;;;20.99;66.43;101268.97;4980501;28;45859;-75
2021/06/28 09:28:42;;;;;;;;;2.00;2.00;;;;;21.01;66.69;101275.09;4996379;28;45526;-75
2021/06/28 09:31:15;;;;;;;;;2.25;1.75;;;;;20.99;65.33;101271.66;4981241;28;45276;-76
2021/06/28 09:33:40;;;;;;;;;1.00;1.00;;;;;21.00;66.49;101282.25;4967461;28;45379;-75
2021/06/28 09:36:18;;;;;;;;;3.50;2.00;;;;;21.02;66.53;101283.00;4965287;28;45647;-75
2021/06/28 09:38:43;;;;;;;;;1.00;1.00;;;;;21.02;66.44;101282.13;4966375;28;45365;-75
2021/06/28 09:41:32;;;;;;;;;2.00;2.00;;;;;21.03;66.05;101278.50;4979403;28;45317;-75
2021/06/28 09:44:06;;;;;;;;;2.00;2.00;;;;;21.04;66.09;101284.72;4974661;28;45654;-76
2021/06/28 09:46:32;;;;;;;;;2.00;2.00;;;;;21.03;66.50;101281.19;4978125;28;45338;-75
2021/06/28 09:48:58;;;;;;;;;2.00;2.00;;;;;21.10;66.13;101285.16;4979455;28;46073;-75
2021/06/28 09:51:27;;;;;;;;;3.50;2.75;;;;;21.14;65.89;101275.06;4967118;28;45779;-75
2021/06/28 09:53:55;;;;;;;;;1.25;1.25;;;;;21.22;66.26;101280.75;4970900;28;46413;-75
2021/06/28 09:56:34;;;;;;;;;1.25;1.25;;;;;21.30;66.05;101282.03;4961392;28;45567;-75
2021/06/28 09:59:24;;;;;;;;;2.00;2.00;;;;;21.34;65.82;101284.38;4969779;28;45242;-75
2021/06/28 10:02:08;;;;;;;;;2.00;2.00;;;;;21.38;65.90;101286.84;4977018;28;47308;-75
2021/06/28 10:04:50;;;;;;;;;4.00;3.00;;;;;21.39;65.81;101286.72;4961532;28;48381;-75
2021/06/28 10:07:30;;;;;;;;;1.50;1.50;;;;;21.43;65.33;101295.41;4975859;28;46075;-75
2021/06/28 10:10:17;;;;;;;;;2.25;2.25;;;;;21.47;65.29;101296.88;4963047;28;45360;-75
2021/06/28 10:12:57;;;;;;;;;1.50;1.00;;;;;21.46;65.07;101301.38;4965015;28;45315;-75
2021/06/28 10:15:28;;;;;;;;;1.25;1.00;;;;;21.48;65.23;101296.75;4997007;28;47296;-75
2021/06/28 10:17:53;;;;;;;;;2.75;1.50;;;;;21.53;65.13;101293.75;4976714;28;45326;-75
2021/06/28 10:20:22;;;;;;;;;2.00;2.00;;;;;21.54;64.86;101292.81;4968455;28;45560;-75
2021/06/28 10:22:50;;;;;;;;;0.75;0.00;;;;;21.56;64.64;101298.88;4980669;28;45480;-75
2021/06/28 10:25:18;;;;;;;;;2.00;2.00;;;;;21.49;64.76;101297.63;4978148;28;46823;-75
2021/06/28 10:27:45;;;;;;;;;1.50;1.50;;;;;21.53;63.89;101296.44;4968991;28;45308;-75
2021/06/28 10:30:14;;;;;;;;;2.00;2.00;;;;;21.53;64.33;101296.44;4980512;28;45329;-76
2021/06/28 10:32:41;;;;;;;;;1.75;1.75;;;;;21.51;64.15;101292.19;4971626;28;45950;-76
2021/06/28 10:35:10;;;;;;;;;4.25;2.00;;;;;21.50;63.97;101304.69;4971975;28;45491;-76
2021/06/28 10:37:47;;;;;;;;;2.50;2.50;;;;;21.51;64.12;101293.00;4973180;28;45250;-76
2021/06/28 10:40:16;;;;;;;;;1.50;1.50;;;;;21.46;64.56;101289.81;4972033;28;45257;-84
2021/06/28 10:42:45;;;;;;;;;3.00;3.00;;;;;21.43;64.35;101290.06;4973602;28;45472;-85
2021/06/28 10:45:13;;;;;;;;;7.00;4.00;;;;;21.43;64.71;101293.59;4962472;28;45680;-86
2021/06/28 10:47:41;;;;;;;;;2.75;2.75;;;;;21.36;64.74;101285.13;4963488;28;45421;-85
2021/06/28 10:50:08;;;;;;;;;2.00;1.75;;;;;21.32;64.46;101285.44;4962969;28;45377;-85
2021/06/28 10:52:34;;;;;;;;;3.75;2.50;;;;;21.30;64.44;101296.25;4962055;28;45596;-86
2021/06/28 10:55:01;;;;;;;;;2.00;2.00;;;;;21.22;64.32;101282.56;4976994;28;46867;-85
2021/06/28 10:57:53;;;;;;;;;2.25;2.25;;;;;21.28;64.80;101281.28;4962397;28;45243;-86
2021/06/28 11:00:56;;;;;;;;;2.50;2.50;;;;;21.31;64.87;101284.59;4960053;28;45533;-86
2021/06/28 11:03:26;;;;;;;;;4.00;3.00;;;;;21.35;64.75;101288.78;4973664;28;45540;-86
2021/06/28 11:06:13;;;;;;;;;5.00;2.00;;;;;21.39;64.68;101277.84;4972294;28;46232;-86
2021/06/28 11:09:10;;;;;;;;;2.25;2.25;;;;;21.36;64.49;101274.41;4975854;28;45437;-86
2021/06/28 11:11:48;;;;;;;;;3.00;2.00;;;;;21.32;64.35;101267.59;4996742;28;45418;-86
2021/06/28 11:14:19;;;;;;;;;1.00;1.00;;;;;21.26;64.72;101270.69;4981186;28;45396;-86
2021/06/28 11:16:55;;;;;;;;;3.00;2.00;;;;;21.21;64.52;101270.19;4974241;28;45830;-86
2021/06/28 11:19:45;;;;;;;;;2.00;2.00;;;;;21.17;64.70;101271.34;4961930;28;45404;-86
2021/06/28 11:22:30;;;;;;;;;2.00;2.00;;;;;21.14;64.93;101273.25;4961953;28;45409;-86
2021/06/28 11:25:07;;;;;;;;;2.50;2.00;;;;;21.12;64.89;101263.66;4976640;28;46986;-86
2021/06/28 11:27:47;;;;;;;;;1.75;1.75;;;;;21.07;64.82;101263.97;4960788;28;46216;-86